Time;durP1;ratioP1;P1;durP2;ratioP2;P2;SDS_P1;SDS_P2;PMS_P1;PMS_P2;Temp;Humidity;BMP_temperature;BMP_pressure;BME280_temperature;BME280_humidity;BME280_pressure;Samples;Min_cycle;Max_cycle;Signal;HPM_P1;HPM_P2
2021/04/21 00:01:45;;;;;;;10.55;7.40;;;9.10;1.00;;;;;;4986733;28;20235;-81
2021/04/21 00:04:22;;;;;;;10.40;6.88;;;9.10;1.00;;;;;;4987720;28;20237;-80
2021/04/21 00:06:50;;;;;;;9.77;5.72;;;9.10;1.00;;;;;;4988577;28;20337;-82
2021/04/21 00:09:20;;;;;;;9.55;7.03;;;9.10;1.00;;;;;;4974479;28;20240;-80
2021/04/21 00:11:49;;;;;;;16.58;7.25;;;9.00;1.00;;;;;;4975484;28;20247;-80
2021/04/21 00:14:19;;;;;;;10.00;6.65;;;9.00;1.00;;;;;;4995666;28;20224;-81
2021/04/21 00:16:48;;;;;;;12.75;7.75;;;9.00;1.00;;;;;;4982102;28;20220;-80
2021/04/21 00:19:18;;;;;;;9.43;6.68;;;8.90;1.00;;;;;;4961395;28;20243;-83
2021/04/21 00:21:46;;;;;;;10.32;7.32;;;8.90;1.00;;;;;;4980445;28;21033;-82
2021/04/21 00:24:17;;;;;;;8.93;7.80;;;8.80;1.00;;;;;;4992648;28;20223;-81
2021/04/21 00:26:50;;;;;;;8.43;6.40;;;8.80;1.00;;;;;;4975636;28;20240;-82
2021/04/21 00:29:19;;;;;;;8.13;6.78;;;8.70;1.00;;;;;;4969251;28;20246;-81
2021/04/21 00:31:55;;;;;;;9.57;6.60;;;8.60;1.00;;;;;;4983967;28;20235;-82
2021/04/21 00:34:37;;;;;;;10.07;6.38;;;8.50;1.00;;;;;;4991821;28;20254;-83
2021/04/21 00:37:05;;;;;;;9.27;6.95;;;8.50;1.00;;;;;;4991578;28;20226;-83
2021/04/21 00:39:34;;;;;;;7.97;6.30;;;8.40;1.00;;;;;;4985837;28;20222;-79
2021/04/21 00:42:08;;;;;;;9.32;7.68;;;8.40;1.00;;;;;;4990248;28;20318;-80
2021/04/21 00:44:55;;;;;;;10.13;7.25;;;8.50;1.00;;;;;;4973140;28;20227;-79
2021/04/21 00:47:30;;;;;;;10.55;7.85;;;8.50;1.00;;;;;;4989886;28;20302;-80
2021/04/21 00:50:01;;;;;;;11.65;8.02;;;8.50;1.00;;;;;;4966378;28;20219;-80
2021/04/21 00:52:33;;;;;;;8.35;7.50;;;8.50;1.00;;;;;;4978479;28;20298;-80
2021/04/21 00:55:04;;;;;;;12.05;7.85;;;8.50;1.00;;;;;;4978237;28;20267;-80
2021/04/21 00:57:39;;;;;;;11.23;7.55;;;8.50;1.00;;;;;;4981007;28;23194;-82
2021/04/21 01:00:10;;;;;;;9.25;8.27;;;8.50;1.00;;;;;;4981891;28;20380;-81
2021/04/21 01:02:42;;;;;;;12.27;8.20;;;8.50;1.00;;;;;;4982899;28;20283;-79
2021/04/21 01:05:13;;;;;;;14.15;7.75;;;8.50;1.00;;;;;;4968756;28;21088;-80
2021/04/21 01:07:45;;;;;;;12.98;7.53;;;8.50;1.00;;;;;;4990127;28;20230;-80
2021/04/21 01:10:13;;;;;;;15.00;8.65;;;8.50;1.00;;;;;;4980869;28;20228;-84
2021/04/21 01:12:41;;;;;;;16.48;8.85;;;8.40;1.00;;;;;;4979284;28;20413;-80
2021/04/21 01:15:12;;;;;;;11.52;8.57;;;8.50;1.00;;;;;;4979186;28;20223;-80
2021/04/21 01:17:42;;;;;;;11.48;7.50;;;8.40;1.00;;;;;;4982312;28;20223;-81
2021/04/21 01:20:17;;;;;;;11.52;7.47;;;8.50;1.00;;;;;;4985050;28;20246;-83
2021/04/21 01:23:02;;;;;;;11.45;7.60;;;8.50;1.00;;;;;;4980566;28;20223;-79
2021/04/21 01:25:41;;;;;;;9.75;7.47;;;8.40;1.00;;;;;;4994237;28;20842;-79
2021/04/21 01:28:12;;;;;;;10.15;7.50;;;8.50;1.00;;;;;;4994509;28;21014;-79
2021/04/21 01:30:43;;;;;;;9.68;7.30;;;8.40;1.00;;;;;;4984255;28;20230;-81
2021/04/21 01:33:15;;;;;;;11.68;7.53;;;8.50;1.00;;;;;;4976865;28;20228;-81
2021/04/21 01:35:44;;;;;;;10.63;6.82;;;8.50;1.00;;;;;;4971821;28;20227;-81
2021/04/21 01:38:12;;;;;;;10.65;7.47;;;8.50;1.00;;;;;;4987538;28;20311;-83
2021/04/21 01:40:43;;;;;;;10.38;6.55;;;8.60;1.00;;;;;;4990673;28;20231;-81
2021/04/21 01:43:15;;;;;;;20.42;11.57;;;8.60;1.00;;;;;;4996832;28;20232;-82
2021/04/21 01:45:43;;;;;;;13.93;7.88;;;8.60;1.00;;;;;;4998197;28;20328;-82
2021/04/21 01:48:16;;;;;;;24.27;16.65;;;8.60;1.00;;;;;;4998753;28;20723;-82
2021/04/21 01:50:42;;;;;;;11.55;7.82;;;8.60;1.00;;;;;;4985054;28;20215;-81
2021/04/21 01:53:29;;;;;;;11.55;6.30;;;8.60;1.00;;;;;;4983585;28;20690;-83
2021/04/21 01:56:05;;;;;;;7.85;6.25;;;8.60;1.00;;;;;;4983553;28;21377;-82
2021/04/21 01:58:54;;;;;;;9.82;6.90;;;8.60;1.00;;;;;;4985850;28;20283;-82
2021/04/21 02:01:46;;;;;;;12.85;7.07;;;8.70;1.00;;;;;;4982050;28;20301;-82
2021/04/21 02:04:29;;;;;;;8.77;5.97;;;8.70;1.00;;;;;;4992946;28;20224;-81
2021/04/21 02:07:01;;;;;;;10.93;7.45;;;8.70;1.00;;;;;;4966944;28;20275;-80
2021/04/21 02:09:59;;;;;;;8.27;6.60;;;8.70;1.00;;;;;;4997736;28;21149;-81
2021/04/21 02:12:58;;;;;;;8.75;6.15;;;8.70;1.00;;;;;;4991907;28;20232;-83
2021/04/21 02:15:37;;;;;;;9.25;6.30;;;8.70;1.00;;;;;;4991912;28;20242;-80
2021/04/21 02:18:10;;;;;;;7.65;6.85;;;8.70;1.00;;;;;;4997369;28;20229;-78
2021/04/21 02:20:43;;;;;;;8.82;6.40;;;8.70;1.00;;;;;;4984370;28;20224;-80
2021/04/21 02:23:24;;;;;;;8.18;5.43;;;8.70;1.00;;;;;;4997250;28;20301;-80
2021/04/21 02:26:02;;;;;;;8.25;6.30;;;8.60;1.00;;;;;;4964010;28;20241;-80
2021/04/21 02:28:43;;;;;;;9.65;6.20;;;8.60;1.00;;;;;;4965484;28;20224;-80
2021/04/21 02:31:26;;;;;;;9.00;6.90;;;8.60;1.00;;;;;;4995470;28;20220;-81
2021/04/21 02:34:02;;;;;;;9.82;6.53;;;8.50;1.00;;;;;;4996803;28;20290;-80
2021/04/21 02:36:37;;;;;;;10.63;7.72;;;8.50;1.00;;;;;;4979460;28;20231;-80
2021/04/21 02:39:10;;;;;;;7.25;6.50;;;8.50;1.00;;;;;;4990048;28;20239;-83
2021/04/21 02:41:45;;;;;;;8.80;6.00;;;8.50;1.00;;;;;;4982395;28;20227;-81
2021/04/21 02:44:23;;;;;;;8.45;6.60;;;8.50;1.00;;;;;;4980168;28;20788;-81
2021/04/21 02:46:57;;;;;;;10.98;6.53;;;8.40;1.00;;;;;;4977230;28;20231;-82
2021/04/21 02:49:40;;;;;;;13.48;6.65;;;8.30;1.00;;;;;;4962196;28;20983;-82
2021/04/21 02:52:12;;;;;;;13.73;6.90;;;8.30;1.00;;;;;;4981631;28;20861;-80
2021/04/21 02:55:03;;;;;;;7.72;6.97;;;8.30;1.00;;;;;;4977299;28;20245;-80
2021/04/21 02:57:37;;;;;;;8.77;6.72;;;8.30;1.00;;;;;;4963515;28;20227;-82
2021/04/21 03:00:08;;;;;;;10.75;6.97;;;8.20;1.00;;;;;;4957082;28;20495;-81
2021/04/21 03:02:40;;;;;;;9.73;6.28;;;8.20;1.00;;;;;;4958958;28;20219;-80
2021/04/21 03:05:15;;;;;;;10.15;6.07;;;8.20;1.00;;;;;;4960065;28;20271;-82
2021/04/21 03:07:49;;;;;;;11.68;6.85;;;8.20;1.00;;;;;;4961417;28;20236;-81
2021/04/21 03:10:18;;;;;;;10.57;5.90;;;8.20;1.00;;;;;;4962720;28;20226;-81
2021/04/21 03:12:57;;;;;;;7.38;5.35;;;8.10;1.00;;;;;;4978557;28;21161;-82
2021/04/21 03:15:27;;;;;;;7.85;5.65;;;8.10;1.00;;;;;;4956385;28;20223;-82
2021/04/21 03:17:57;;;;;;;10.80;6.53;;;8.20;1.00;;;;;;4979650;28;20250;-81
2021/04/21 03:20:24;;;;;;;11.00;6.55;;;8.10;1.00;;;;;;4984132;28;20568;-82
2021/04/21 03:22:55;;;;;;;8.35;6.53;;;8.10;1.00;;;;;;4985505;28;20306;-81
2021/04/21 03:25:26;;;;;;;12.02;7.60;;;8.10;1.00;;;;;;4980565;28;20224;-81
2021/04/21 03:27:58;;;;;;;12.07;6.68;;;8.00;1.00;;;;;;4985164;28;20223;-81
2021/04/21 03:30:26;;;;;;;10.25;6.82;;;8.00;1.00;;;;;;4983720;28;20232;-81
2021/04/21 03:33:05;;;;;;;10.88;6.75;;;8.00;1.00;;;;;;4986672;28;20228;-80
2021/04/21 03:35:37;;;;;;;8.88;6.22;;;8.00;1.00;;;;;;4987357;28;21103;-80
2021/04/21 03:38:06;;;;;;;10.63;6.75;;;7.90;1.00;;;;;;4999205;28;20318;-80
2021/04/21 03:40:35;;;;;;;15.10;9.13;;;7.90;1.00;;;;;;4967685;28;20242;-82
2021/04/21 03:43:03;;;;;;;9.43;7.60;;;7.90;1.00;;;;;;4983060;28;20245;-81
2021/04/21 03:45:39;;;;;;;36.10;23.20;;;7.90;1.00;;;;;;4981172;28;20289;-80
2021/04/21 03:48:09;;;;;;;13.70;7.38;;;7.80;1.00;;;;;;4982143;28;21132;-82
2021/04/21 03:50:36;;;;;;;14.10;8.27;;;7.80;1.00;;;;;;4984055;28;20365;-82
2021/04/21 03:53:04;;;;;;;10.85;7.50;;;7.80;1.00;;;;;;4967090;28;20790;-82
2021/04/21 03:55:32;;;;;;;9.32;6.75;;;7.80;1.00;;;;;;4977669;28;20230;-83
2021/04/21 03:58:06;;;;;;;10.00;6.32;;;7.80;1.00;;;;;;4985347;28;20243;-82
2021/04/21 04:00:35;;;;;;;8.40;5.10;;;7.80;1.00;;;;;;4991964;28;20480;-82
2021/04/21 04:03:09;;;;;;;7.63;5.85;;;7.80;1.00;;;;;;4980770;28;20235;-83
2021/04/21 04:05:43;;;;;;;10.60;6.53;;;7.90;1.00;;;;;;4994263;28;20223;-82
2021/04/21 04:08:13;;;;;;;10.75;5.80;;;7.90;1.00;;;;;;4998616;28;21078;-82
2021/04/21 04:10:48;;;;;;;10.35;6.75;;;7.90;1.00;;;;;;4997051;28;20223;-82
2021/04/21 04:13:16;;;;;;;7.70;5.90;;;7.90;1.00;;;;;;4998989;28;20743;-83
2021/04/21 04:15:48;;;;;;;13.45;7.10;;;7.90;1.00;;;;;;5001550;28;20227;-82
2021/04/21 04:18:22;;;;;;;11.90;7.82;;;7.90;1.00;;;;;;4986050;28;20231;-81
2021/04/21 04:20:54;;;;;;;14.80;8.00;;;7.90;1.00;;;;;;5011498;28;20227;-81
2021/04/21 04:23:23;;;;;;;10.55;6.65;;;7.90;1.00;;;;;;4993033;28;20228;-84
2021/04/21 04:25:56;;;;;;;11.75;7.20;;;7.90;1.00;;;;;;5011717;28;20227;-82
2021/04/21 04:28:24;;;;;;;8.40;6.47;;;7.90;1.00;;;;;;5005108;28;20231;-82
2021/04/21 04:30:55;;;;;;;10.63;7.28;;;8.00;1.00;;;;;;4985778;28;20610;-83
2021/04/21 04:33:25;;;;;;;11.10;6.38;;;8.00;1.00;;;;;;5000312;28;20251;-82
2021/04/21 04:35:52;;;;;;;18.35;8.52;;;8.00;1.00;;;;;;4995060;28;20286;-82
2021/04/21 04:38:19;;;;;;;11.43;7.30;;;8.00;1.00;;;;;;5001100;28;20231;-80
2021/04/21 04:40:49;;;;;;;12.82;7.65;;;8.00;1.00;;;;;;5001120;28;20235;-82
2021/04/21 04:43:17;;;;;;;8.77;7.10;;;8.10;1.00;;;;;;4968646;28;20307;-82
2021/04/21 04:45:50;;;;;;;11.25;6.55;;;8.10;1.00;;;;;;4986739;28;20230;-82
2021/04/21 04:48:22;;;;;;;8.65;6.95;;;8.10;1.00;;;;;;4983376;28;21082;-82
2021/04/21 04:50:55;;;;;;;12.52;5.70;;;8.10;1.00;;;;;;4986010;28;20219;-81
2021/04/21 04:53:22;;;;;;;10.02;6.68;;;8.10;1.00;;;;;;4976960;28;20227;-83
2021/04/21 04:55:48;;;;;;;8.63;7.18;;;8.10;1.00;;;;;;4989580;28;21106;-82
2021/04/21 04:58:20;;;;;;;10.05;6.82;;;8.20;1.00;;;;;;4979152;28;20232;-82
2021/04/21 05:00:49;;;;;;;9.55;6.65;;;8.20;1.00;;;;;;4985043;28;20223;-84
2021/04/21 05:03:22;;;;;;;10.50;6.82;;;8.30;1.00;;;;;;4979751;28;20251;-84
2021/04/21 05:05:55;;;;;;;9.55;7.20;;;8.30;1.00;;;;;;4973329;28;20235;-82
2021/04/21 05:08:26;;;;;;;7.97;6.20;;;8.30;1.00;;;;;;4974227;28;20235;-83
2021/04/21 05:10:59;;;;;;;12.20;6.78;;;8.40;1.00;;;;;;4973452;28;20236;-82
2021/04/21 05:13:27;;;;;;;11.95;6.45;;;8.40;1.00;;;;;;4984295;28;20319;-82
2021/04/21 05:16:34;;;;;;;13.10;6.97;;;8.50;1.00;;;;;;4995679;28;20215;-83
2021/04/21 05:19:34;;;;;;;9.27;6.28;;;8.60;1.00;;;;;;5002315;28;20233;-83
2021/04/21 05:22:52;;;;;;;10.38;7.85;;;8.60;1.00;;;;;;4997862;28;20246;-83
2021/04/21 05:25:55;;;;;;;12.55;8.45;;;8.60;1.00;;;;;;4984607;28;21209;-84
2021/04/21 05:28:50;;;;;;;10.10;8.23;;;8.80;1.00;;;;;;4982456;28;20231;-83
2021/04/21 05:31:57;;;;;;;15.40;9.18;;;8.90;1.00;;;;;;4981201;28;20230;-84
2021/04/21 05:34:59;;;;;;;12.55;8.90;;;9.00;1.00;;;;;;4954981;28;20224;-83
2021/04/21 05:38:01;;;;;;;10.38;8.05;;;9.10;1.00;;;;;;5000452;28;20231;-81
2021/04/21 05:41:16;;;;;;;11.40;8.52;;;9.20;1.00;;;;;;5009096;28;20215;-81
2021/04/21 05:44:16;;;;;;;17.65;10.52;;;9.40;1.00;;;;;;5006770;28;20230;-78
2021/04/21 05:47:24;;;;;;;14.45;9.10;;;9.50;1.00;;;;;;5006517;28;20224;-81
2021/04/21 05:50:13;;;;;;;11.65;8.45;;;9.60;1.00;;;;;;4984255;28;20260;-72
2021/04/21 05:53:17;;;;;;;9.38;8.05;;;9.80;1.00;;;;;;4989582;28;20300;-76
2021/04/21 05:56:17;;;;;;;13.13;8.15;;;9.90;1.00;;;;;;4987644;28;21292;-76
2021/04/21 05:59:15;;;;;;;11.88;9.40;;;10.00;1.00;;;;;;4984289;28;20338;-75
2021/04/21 06:01:44;;;;;;;11.55;8.50;;;10.20;1.00;;;;;;4960345;28;21322;-74
2021/04/21 06:04:11;;;;;;;25.90;9.68;;;10.40;1.00;;;;;;4985711;28;20211;-75
2021/04/21 06:06:40;;;;;;;11.48;8.40;;;10.50;1.00;;;;;;4982466;28;20287;-74
2021/04/21 06:09:08;;;;;;;12.48;8.65;;;10.60;1.00;;;;;;4991733;28;20466;-78
2021/04/21 06:11:35;;;;;;;17.52;9.63;;;10.70;1.00;;;;;;4981981;28;21139;-76
2021/04/21 06:14:04;;;;;;;16.40;9.55;;;10.80;1.00;;;;;;4981180;28;20223;-75
2021/04/21 06:16:31;;;;;;;12.13;8.70;;;10.80;1.00;;;;;;4971015;28;20238;-75
2021/04/21 06:19:00;;;;;;;12.13;9.80;;;10.90;1.00;;;;;;4990211;28;20443;-75
2021/04/21 06:21:29;;;;;;;12.93;8.90;;;11.00;1.00;;;;;;4982541;28;20330;-75
2021/04/21 06:23:57;;;;;;;10.90;8.40;;;11.00;1.00;;;;;;4993351;28;20435;-73
2021/04/21 06:26:26;;;;;;;10.70;9.30;;;11.10;1.00;;;;;;4994673;28;20474;-76
2021/04/21 06:29:00;;;;;;;13.07;9.10;;;11.10;1.00;;;;;;4994421;28;20410;-75
2021/04/21 06:31:36;;;;;;;14.32;9.55;;;11.20;1.00;;;;;;4984780;28;20228;-79
2021/04/21 06:34:03;;;;;;;15.23;9.73;;;11.20;1.00;;;;;;4972867;28;20361;-76
2021/04/21 06:36:39;;;;;;;15.37;10.30;;;11.20;1.00;;;;;;4976208;28;20595;-76
2021/04/21 06:39:06;;;;;;;13.80;9.60;;;11.30;1.00;;;;;;4979582;28;20531;-74
2021/04/21 06:41:34;;;;;;;12.33;10.00;;;11.30;1.00;;;;;;4979547;28;20499;-75
2021/04/21 06:44:00;;;;;;;12.10;9.17;;;11.40;1.00;;;;;;4973002;28;20485;-74
2021/04/21 06:46:27;;;;;;;14.77;9.73;;;11.40;1.00;;;;;;4973324;28;20553;-75
2021/04/21 06:48:55;;;;;;;12.57;9.63;;;11.50;1.00;;;;;;4969541;28;20583;-79
2021/04/21 06:51:23;;;;;;;16.43;10.10;;;11.60;1.00;;;;;;4983850;28;22547;-81
2021/04/21 06:53:51;;;;;;;21.13;10.63;;;11.60;1.00;;;;;;4989348;28;20419;-82
2021/04/21 06:56:26;;;;;;;15.83;10.20;;;11.70;1.00;;;;;;4968389;28;20467;-83
2021/04/21 06:58:53;;;;;;;14.77;10.03;;;11.80;1.00;;;;;;4993439;28;20463;-82
2021/04/21 07:01:27;;;;;;;9.93;8.43;;;11.90;1.00;;;;;;4995344;28;21555;-81
2021/04/21 07:03:54;;;;;;;11.90;8.90;;;11.90;1.00;;;;;;4994339;28;20447;-82
2021/04/21 07:06:21;;;;;;;11.53;8.20;;;12.00;1.00;;;;;;4965784;28;20459;-80
2021/04/21 07:08:52;;;;;;;11.33;8.03;;;12.00;1.00;;;;;;4983060;28;20468;-81
2021/04/21 07:11:21;;;;;;;10.30;8.43;;;12.10;1.00;;;;;;4971361;28;20419;-79
2021/04/21 07:13:48;;;;;;;12.70;9.23;;;12.20;1.00;;;;;;4983401;28;20470;-79
2021/04/21 07:16:19;;;;;;;13.03;8.93;;;12.30;1.00;;;;;;4986964;28;20428;-78
2021/04/21 07:18:50;;;;;;;10.00;8.90;;;12.40;1.00;;;;;;4966282;28;21097;-80
2021/04/21 07:21:20;;;;;;;11.23;8.80;;;12.50;1.00;;;;;;4983441;28;20572;-80
2021/04/21 07:23:50;;;;;;;12.70;9.10;;;12.60;1.00;;;;;;4984286;28;20447;-78
2021/04/21 07:26:17;;;;;;;10.37;8.90;;;12.70;1.00;;;;;;4956232;28;20487;-76
2021/04/21 07:28:45;;;;;;;11.57;10.37;;;12.90;1.00;;;;;;4986934;28;20430;-78
2021/04/21 07:31:14;;;;;;;11.90;8.80;;;13.00;1.00;;;;;;4980859;28;20448;-81
2021/04/21 07:33:43;;;;;;;13.20;9.40;;;13.20;1.00;;;;;;4983375;28;20514;-80
2021/04/21 07:36:15;;;;;;;12.20;9.77;;;13.30;1.00;;;;;;4984890;28;20518;-80
2021/04/21 07:38:44;;;;;;;13.57;9.57;;;13.40;1.00;;;;;;4995148;28;20415;-77
2021/04/21 07:41:11;;;;;;;10.20;9.03;;;13.60;1.00;;;;;;4981851;28;20436;-79
2021/04/21 07:43:43;;;;;;;12.27;9.40;;;13.70;1.00;;;;;;4996704;28;20415;-78
2021/04/21 07:46:23;;;;;;;11.37;8.77;;;13.80;1.00;;;;;;4987377;28;20505;-78
2021/04/21 07:48:51;;;;;;;10.70;8.10;;;13.90;1.00;;;;;;4989811;28;20446;-78
2021/04/21 07:51:37;;;;;;;13.70;8.27;;;14.10;1.00;;;;;;4966833;28;20443;-81
2021/04/21 07:54:16;;;;;;;10.37;8.60;;;14.20;1.00;;;;;;4986046;28;20503;-80
2021/04/21 07:56:52;;;;;;;8.17;7.37;;;14.40;1.00;;;;;;4987174;28;20544;-79
2021/04/21 07:59:20;;;;;;;10.17;8.00;;;14.50;1.00;;;;;;4990143;28;20929;-80
2021/04/21 08:01:48;;;;;;;8.33;7.37;;;14.60;1.00;;;;;;4991491;28;20419;-82
2021/04/21 08:04:21;;;;;;;10.70;7.50;;;14.60;1.00;;;;;;4993754;28;20581;-79
2021/04/21 08:06:54;;;;;;;8.67;7.67;;;14.70;1.00;;;;;;4992896;28;20499;-83
2021/04/21 08:09:24;;;;;;;9.60;7.83;;;14.90;1.00;;;;;;4982978;28;20420;-83
2021/04/21 08:12:08;;;;;;;9.13;7.80;;;15.00;1.00;;;;;;4981893;28;20492;-81
2021/04/21 08:14:43;;;;;;;10.57;6.80;;;15.10;1.00;;;;;;4983562;28;20515;-82
2021/04/21 08:17:11;;;;;;;9.33;6.97;;;15.20;1.00;;;;;;4983525;28;20430;-84
2021/04/21 08:19:41;;;;;;;8.80;6.53;;;15.30;1.00;;;;;;4979229;28;21033;-80
2021/04/21 08:22:08;;;;;;;7.53;6.47;;;15.30;1.00;;;;;;4991712;28;20463;-80
2021/04/21 08:24:44;;;;;;;7.70;6.67;;;15.40;1.00;;;;;;4991780;28;20466;-80
2021/04/21 08:27:13;;;;;;;14.63;8.03;;;15.50;1.00;;;;;;4994691;28;20895;-84
2021/04/21 08:29:40;;;;;;;15.70;7.70;;;15.70;1.00;;;;;;4994860;28;20537;-84
2021/04/21 08:32:08;;;;;;;9.63;7.20;;;15.90;1.00;;;;;;4996352;28;20459;-82
2021/04/21 08:34:38;;;;;;;11.13;7.23;;;16.10;1.00;;;;;;4970813;28;20419;-82
2021/04/21 08:37:11;;;;;;;17.10;8.40;;;16.20;1.00;;;;;;4972381;28;20460;-83
2021/04/21 08:39:39;;;;;;;13.40;7.67;;;16.30;1.00;;;;;;4965886;28;20422;-83
2021/04/21 08:42:08;;;;;;;10.20;7.23;;;16.50;1.00;;;;;;4969054;28;20517;-83
2021/04/21 08:44:41;;;;;;;8.70;7.13;;;16.70;1.00;;;;;;4989881;28;20421;-83
2021/04/21 08:47:08;;;;;;;9.77;6.17;;;16.80;1.00;;;;;;4977044;28;20448;-83
2021/04/21 08:49:42;;;;;;;8.80;6.37;;;16.90;1.00;;;;;;4986276;28;20468;-83
2021/04/21 08:52:11;;;;;;;10.03;7.27;;;16.90;1.00;;;;;;4966451;28;20960;-77
2021/04/21 08:54:39;;;;;;;12.60;6.80;;;16.90;1.00;;;;;;4965928;28;20529;-78
2021/04/21 08:57:08;;;;;;;7.30;6.60;;;17.10;1.00;;;;;;4964667;28;20456;-80
2021/04/21 08:59:35;;;;;;;9.67;6.40;;;17.30;1.00;;;;;;4983091;28;20423;-78
2021/04/21 09:02:02;;;;;;;7.53;6.40;;;17.50;1.00;;;;;;4980903;28;20592;-79
2021/04/21 09:04:30;;;;;;;10.10;7.77;;;17.80;1.00;;;;;;4981428;28;20453;-80
2021/04/21 09:07:01;;;;;;;9.40;5.70;;;17.90;1.00;;;;;;4989503;28;20418;-83
2021/04/21 09:09:29;;;;;;;8.23;6.10;;;18.00;1.00;;;;;;4983902;28;20482;-84
2021/04/21 09:11:56;;;;;;;7.43;5.57;;;18.00;1.00;;;;;;4989566;28;20504;-83
2021/04/21 09:14:22;;;;;;;6.80;5.60;;;18.00;1.00;;;;;;4992544;28;20451;-86
2021/04/21 09:16:58;;;;;;;9.57;6.03;;;18.00;1.00;;;;;;4993238;28;20532;-83
2021/04/21 09:19:27;;;;;;;7.40;6.33;;;18.10;1.00;;;;;;4997682;28;20445;-84
2021/04/21 09:22:06;;;;;;;12.57;6.07;;;18.30;1.00;;;;;;4981498;28;20438;-87
2021/04/21 09:24:47;;;;;;;9.10;6.53;;;18.40;1.00;;;;;;4974513;28;20429;-85
2021/04/21 09:27:26;;;;;;;12.07;6.23;;;18.50;1.00;;;;;;4991631;28;20477;-86
2021/04/21 09:30:11;;;;;;;9.90;7.50;;;19.10;1.00;;;;;;4988748;28;21177;-84
2021/04/21 09:32:56;;;;;;;10.77;7.00;;;20.00;1.00;;;;;;4988934;28;20497;-83
2021/04/21 09:35:25;;;;;;;8.13;7.30;;;21.60;1.00;;;;;;4972168;28;21301;-84
2021/04/21 09:38:05;;;;;;;7.90;7.00;;;22.90;1.00;;;;;;4997672;28;21179;-84
2021/04/21 09:40:40;;;;;;;9.07;7.13;;;24.00;1.00;;;;;;4971856;28;20443;-83
2021/04/21 09:43:14;;;;;;;7.80;7.00;;;25.20;1.00;;;;;;4978449;28;20635;-81
2021/04/21 09:45:43;;;;;;;8.73;7.83;;;26.10;1.00;;;;;;4997351;28;20412;-83
2021/04/21 09:48:15;;;;;;;9.70;7.40;;;26.90;1.00;;;;;;5003081;28;20481;-84
2021/04/21 09:50:55;;;;;;;9.53;6.83;;;27.40;1.00;;;;;;4988883;28;20954;-82
2021/04/21 09:53:24;;;;;;;8.37;7.67;;;27.60;1.00;;;;;;5004091;28;20432;-82
2021/04/21 09:56:09;;;;;;;7.27;6.53;;;28.10;1.00;;;;;;4990170;28;21326;-77
2021/04/21 09:58:39;;;;;;;5.93;5.30;;;28.30;1.00;;;;;;4981386;28;20475;-78
2021/04/21 10:01:29;;;;;;;8.73;7.40;;;28.40;1.00;;;;;;4960777;28;20418;-79
2021/04/21 10:04:10;;;;;;;9.40;6.80;;;28.30;1.00;;;;;;4960932;28;21445;-76
2021/04/21 10:06:37;;;;;;;9.30;5.87;;;28.40;1.00;;;;;;4985232;28;20510;-79
2021/04/21 10:09:04;;;;;;;6.63;5.97;;;28.50;1.00;;;;;;4984426;28;20557;-78
2021/04/21 10:11:32;;;;;;;8.47;7.60;;;28.60;1.00;;;;;;4984145;28;20451;-79
2021/04/21 10:14:01;;;;;;;8.83;6.63;;;28.80;1.00;;;;;;4986600;28;20418;-80
2021/04/21 10:16:27;;;;;;;16.90;9.30;;;29.00;1.00;;;;;;4989586;28;20450;-79
2021/04/21 10:18:54;;;;;;;7.30;6.60;;;29.40;1.00;;;;;;4995779;28;20833;-78
2021/04/21 10:21:21;;;;;;;8.63;7.90;;;29.60;1.00;;;;;;4988993;28;20430;-78
2021/04/21 10:23:49;;;;;;;13.87;8.60;;;29.90;1.00;;;;;;4989911;28;20444;-79
2021/04/21 10:26:17;;;;;;;7.67;6.97;;;29.00;1.00;;;;;;4987839;28;20413;-77
2021/04/21 10:28:46;;;;;;;8.53;7.73;;;28.60;1.00;;;;;;4991881;28;20461;-77
2021/04/21 10:31:17;;;;;;;10.40;7.53;;;29.10;1.00;;;;;;4985588;28;20433;-78
2021/04/21 10:33:44;;;;;;;8.00;7.30;;;29.70;1.00;;;;;;4991702;28;21068;-77
2021/04/21 10:36:14;;;;;;;11.80;7.10;;;29.80;1.00;;;;;;4987058;28;20504;-78
2021/04/21 10:38:42;;;;;;;8.17;7.40;;;29.80;1.00;;;;;;4985372;28;20440;-78
2021/04/21 10:41:25;;;;;;;7.17;6.43;;;30.00;1.00;;;;;;4988609;28;20565;-78
2021/04/21 10:44:07;;;;;;;7.30;5.73;;;29.90;1.00;;;;;;4989080;28;20469;-78
2021/04/21 10:47:07;;;;;;;6.77;5.57;;;30.10;1.00;;;;;;4989074;28;20469;-77
2021/04/21 10:49:55;;;;;;;7.70;7.00;;;30.20;1.00;;;;;;4993039;28;20480;-77
2021/04/21 10:52:32;;;;;;;8.37;7.23;;;30.20;1.00;;;;;;5002428;28;20420;-80
2021/04/21 10:55:02;;;;;;;6.73;6.20;;;29.50;1.00;;;;;;4998142;28;20464;-82
2021/04/21 10:57:36;;;;;;;8.77;6.60;;;29.00;1.00;;;;;;4995465;28;21158;-79
2021/04/21 11:00:10;;;;;;;6.13;5.27;;;29.80;1.00;;;;;;4969235;28;21513;-79
2021/04/21 11:03:04;;;;;;;5.93;5.13;;;31.20;1.00;;;;;;4984089;28;20484;-76
2021/04/21 11:05:44;;;;;;;14.60;12.73;;;32.10;1.00;;;;;;4979147;28;20473;-78
2021/04/21 11:08:11;;;;;;;5.47;4.77;;;32.50;1.00;;;;;;4974915;28;20466;-76
2021/04/21 11:10:42;;;;;;;5.83;5.33;;;33.00;1.00;;;;;;4978960;28;20473;-77
2021/04/21 11:13:09;;;;;;;7.20;5.37;;;33.50;1.00;;;;;;4975761;28;20426;-75
2021/04/21 11:15:42;;;;;;;5.70;5.20;;;33.70;1.00;;;;;;4977663;28;20563;-77
2021/04/21 11:18:38;;;;;;;7.80;4.97;;;34.30;1.00;;;;;;4997602;28;20985;-78
2021/04/21 11:21:08;;;;;;;6.37;4.93;;;34.40;1.00;;;;;;4998405;28;20458;-79
2021/04/21 11:24:08;;;;;;;6.07;5.57;;;34.50;1.00;;;;;;4988325;28;20438;-76
2021/04/21 11:26:40;;;;;;;5.50;4.30;;;34.40;1.00;;;;;;4975851;28;20549;-73
2021/04/21 11:29:13;;;;;;;11.03;5.67;;;33.60;1.00;;;;;;4959189;28;20473;-80
2021/04/21 11:32:16;;;;;;;7.70;5.10;;;31.40;1.00;;;;;;4971881;28;20476;-78
2021/04/21 11:34:43;;;;;;;6.13;5.03;;;29.30;1.00;;;;;;4993662;28;20471;-84
2021/04/21 11:37:15;;;;;;;8.93;5.60;;;27.40;1.00;;;;;;4991070;28;20456;-86
2021/04/21 11:39:59;;;;;;;6.10;5.50;;;25.90;1.00;;;;;;4988202;28;20414;-87
2021/04/21 11:42:48;;;;;;;7.43;4.90;;;24.90;1.00;;;;;;4983170;28;22315;-84
2021/04/21 11:45:25;;;;;;;9.83;5.60;;;25.60;1.00;;;;;;4979349;28;20460;-81
2021/04/21 11:47:55;;;;;;;5.70;5.00;;;27.50;1.00;;;;;;5008512;28;20423;-81
2021/04/21 11:50:27;;;;;;;7.20;4.80;;;29.10;1.00;;;;;;4995077;28;20467;-83
2021/04/21 11:53:03;;;;;;;5.47;4.70;;;29.20;1.00;;;;;;5012343;28;20432;-81
2021/04/21 11:55:42;;;;;;;5.77;4.93;;;28.90;1.00;;;;;;4997053;28;20424;-86
2021/04/21 12:01:25;;;;;;;5.30;4.80;;;30.60;1.00;;;;;;5175065;22;20480;-78
2021/04/21 12:03:53;;;;;;;5.63;5.13;;;30.70;1.00;;;;;;5035589;28;20439;-77
2021/04/21 12:06:24;;;;;;;5.60;4.80;;;30.80;1.00;;;;;;5020447;28;20495;-77
2021/04/21 12:08:54;;;;;;;7.17;5.43;;;30.90;1.00;;;;;;5034129;28;20422;-79
2021/04/21 12:11:24;;;;;;;6.22;5.40;;;30.80;1.00;;;;;;5000860;28;20414;-76
2021/04/21 12:13:53;;;;;;;5.33;4.80;;;29.80;1.00;;;;;;5019654;28;20213;-79
2021/04/21 12:16:27;;;;;;;7.30;4.97;;;30.30;1.00;;;;;;5025876;28;21298;-81
2021/04/21 12:19:01;;;;;;;6.33;4.80;;;30.50;1.00;;;;;;5021976;28;20429;-77
2021/04/21 12:21:39;;;;;;;5.33;4.17;;;30.20;1.00;;;;;;5019707;28;20454;-79
2021/04/21 12:24:10;;;;;;;6.17;4.90;;;31.10;1.00;;;;;;5024345;28;20468;-77
2021/04/21 12:26:38;;;;;;;7.90;5.60;;;30.70;1.00;;;;;;5020935;28;20435;-77
2021/04/21 12:29:12;;;;;;;8.13;5.63;;;28.40;1.00;;;;;;5013545;28;20501;-79
2021/04/21 12:31:39;;;;;;;5.07;4.67;;;26.60;1.00;;;;;;5015329;28;20446;-78
2021/04/21 12:34:18;;;;;;;5.43;4.70;;;25.90;1.00;;;;;;5029444;28;20559;-78
2021/04/21 12:36:45;;;;;;;5.13;4.63;;;27.30;1.00;;;;;;5023477;28;20581;-77
2021/04/21 12:39:15;;;;;;;5.93;3.87;;;28.90;1.00;;;;;;5025980;28;20429;-79
2021/04/21 12:41:44;;;;;;;5.40;4.60;;;30.40;1.00;;;;;;5008681;28;20394;-76
2021/04/21 12:44:19;;;;;;;4.67;4.20;;;31.10;1.00;;;;;;5026069;28;20447;-79
2021/04/21 12:46:47;;;;;;;8.10;4.20;;;31.50;1.00;;;;;;5019684;28;20412;-75
2021/04/21 12:49:28;;;;;;;7.13;5.07;;;31.90;1.00;;;;;;5023563;28;20417;-77
2021/04/21 12:51:59;;;;;;;9.17;5.00;;;31.80;1.00;;;;;;5019473;28;20413;-78
2021/04/21 12:54:35;;;;;;;5.80;3.70;;;31.70;1.00;;;;;;5024116;28;20431;-79
2021/04/21 12:57:13;;;;;;;7.70;4.43;;;32.20;1.00;;;;;;5006250;28;20453;-78
2021/04/21 12:59:41;;;;;;;6.30;4.37;;;32.40;1.00;;;;;;5010806;28;20423;-78
2021/04/21 13:02:12;;;;;;;5.37;4.70;;;31.00;1.00;;;;;;4996015;28;20418;-77
2021/04/21 13:04:41;;;;;;;5.53;4.60;;;28.70;1.00;;;;;;5018710;28;20569;-77
2021/04/21 13:07:22;;;;;;;5.97;4.67;;;26.90;1.00;;;;;;5007237;28;20413;-77
2021/04/21 13:09:49;;;;;;;4.90;4.30;;;27.30;1.00;;;;;;5007272;28;20974;-76
2021/04/21 13:12:21;;;;;;;5.83;4.17;;;28.50;1.00;;;;;;5022138;28;20413;-78
2021/04/21 13:14:52;;;;;;;5.50;3.93;;;29.40;1.00;;;;;;5019220;28;21708;-77
2021/04/21 13:17:23;;;;;;;4.43;4.03;;;30.20;1.00;;;;;;5015224;28;20493;-78
2021/04/21 13:19:53;;;;;;;4.90;4.47;;;30.60;1.00;;;;;;5013958;28;20597;-77
2021/04/21 13:22:25;;;;;;;5.33;4.20;;;29.60;1.00;;;;;;5008895;28;20421;-75
2021/04/21 13:24:53;;;;;;;5.40;4.40;;;27.70;1.00;;;;;;5008192;28;20456;-77
2021/04/21 13:27:21;;;;;;;5.27;4.53;;;26.00;1.00;;;;;;5008313;28;20900;-77
2021/04/21 13:29:56;;;;;;;4.83;4.43;;;24.50;1.00;;;;;;5005123;28;20492;-78
2021/04/21 13:32:25;;;;;;;7.77;6.00;;;23.50;1.00;;;;;;5019405;28;20404;-78
2021/04/21 13:34:53;;;;;;;8.20;5.23;;;22.80;1.00;;;;;;5013251;28;20425;-76